createdAt,value
2023-03-05T00:01:47.258Z,5.07
2023-03-05T00:04:15.044Z,5.10
2023-03-05T00:06:41.792Z,5.06
2023-03-05T00:09:08.422Z,5.01
2023-03-05T00:11:34.900Z,4.99
2023-03-05T00:14:03.969Z,5.01
2023-03-05T00:16:31.206Z,4.95
2023-03-05T00:18:59.526Z,5.01
2023-03-05T00:21:31.714Z,4.98
2023-03-05T00:24:01.495Z,4.95
2023-03-05T00:26:28.332Z,4.94
2023-03-05T00:28:56.192Z,4.94
2023-03-05T00:31:31.818Z,4.93
2023-03-05T00:34:03.907Z,4.96
2023-03-05T00:36:30.903Z,4.97
2023-03-05T00:38:57.713Z,4.91
2023-03-05T00:41:24.334Z,4.97
2023-03-05T00:43:50.759Z,4.93
2023-03-05T00:46:17.355Z,4.93
2023-03-05T00:48:43.872Z,4.95
2023-03-05T00:51:10.550Z,4.93
2023-03-05T00:53:37.010Z,4.94
2023-03-05T00:56:03.649Z,4.95
2023-03-05T00:58:30.095Z,4.96
2023-03-05T01:01:01.358Z,4.98
2023-03-05T01:03:27.865Z,4.93
2023-03-05T01:05:54.343Z,4.97
2023-03-05T01:08:20.790Z,4.99
2023-03-05T01:10:47.435Z,4.93
2023-03-05T01:13:14.861Z,4.97
2023-03-05T01:15:41.611Z,4.96
2023-03-05T01:18:08.090Z,4.96
2023-03-05T01:20:34.764Z,4.94
2023-03-05T01:23:01.845Z,4.91
2023-03-05T01:25:28.617Z,4.94
2023-03-05T01:27:55.092Z,4.92
2023-03-05T01:30:21.566Z,4.83
2023-03-05T01:32:48.054Z,4.87
2023-03-05T01:35:21.070Z,4.89
2023-03-05T01:37:47.910Z,4.90
2023-03-05T01:40:17.092Z,4.91
2023-03-05T01:42:48.570Z,4.88
2023-03-05T01:45:17.835Z,4.88
2023-03-05T01:47:44.772Z,4.83
2023-03-05T01:50:17.335Z,4.79
2023-03-05T01:52:47.121Z,4.74
2023-03-05T01:55:16.137Z,4.82
2023-03-05T01:57:46.474Z,4.76
2023-03-05T02:00:16.328Z,4.75
2023-03-05T02:02:44.776Z,4.77
2023-03-05T02:05:15.086Z,4.77
2023-03-05T02:07:43.041Z,4.76
2023-03-05T02:10:20.507Z,4.74
2023-03-05T02:12:48.252Z,4.69
2023-03-05T02:15:15.127Z,4.72
2023-03-05T02:17:41.617Z,4.70
2023-03-05T02:20:12.528Z,4.67
2023-03-05T02:22:39.063Z,4.59
2023-03-05T02:25:20.936Z,4.53
2023-03-05T02:28:35.327Z,4.55
2023-03-05T02:31:02.100Z,4.53
2023-03-05T02:33:28.578Z,4.55
2023-03-05T02:35:55.087Z,4.51
2023-03-05T02:38:22.931Z,4.48
2023-03-05T02:40:49.385Z,4.46
2023-03-05T02:43:15.857Z,4.44
2023-03-05T02:45:42.504Z,4.42
2023-03-05T02:48:08.983Z,4.43
2023-03-05T02:50:35.843Z,4.45
2023-03-05T02:53:02.383Z,4.44
2023-03-05T02:55:28.844Z,4.42
2023-03-05T02:57:55.274Z,4.40
2023-03-05T03:00:21.998Z,4.49
2023-03-05T03:02:48.558Z,4.46
2023-03-05T03:05:15.367Z,4.35
2023-03-05T03:07:41.961Z,4.29
2023-03-05T03:10:09.055Z,4.20
2023-03-05T03:12:39.947Z,4.18
2023-03-05T03:15:07.971Z,4.23
2023-03-05T03:17:35.822Z,4.14
2023-03-05T03:20:04.180Z,4.17
2023-03-05T03:22:30.667Z,4.18
2023-03-05T03:24:57.100Z,4.19
2023-03-05T03:27:23.703Z,4.09
2023-03-05T03:29:50.210Z,4.16
2023-03-05T03:32:16.776Z,4.10
2023-03-05T03:34:44.595Z,4.15
2023-03-05T03:37:11.169Z,4.09
2023-03-05T03:39:37.615Z,4.06
2023-03-05T03:42:04.274Z,3.92
2023-03-05T03:44:30.899Z,3.84
2023-03-05T03:46:57.328Z,3.92
2023-03-05T03:49:25.913Z,3.70
2023-03-05T03:51:57.775Z,3.80
2023-03-05T03:54:24.854Z,3.67
2023-03-05T03:56:51.299Z,3.71
2023-03-05T03:59:17.732Z,3.70
2023-03-05T04:01:44.322Z,3.73
2023-03-05T04:04:12.268Z,3.74
2023-03-05T04:06:38.902Z,3.79
2023-03-05T04:09:08.038Z,3.75
2023-03-05T04:11:35.569Z,3.61
2023-03-05T04:14:02.400Z,3.67
2023-03-05T04:16:28.891Z,3.69
2023-03-05T04:18:55.342Z,3.67
2023-03-05T04:21:21.864Z,3.67
2023-03-05T04:23:48.354Z,3.65
2023-03-05T04:26:14.803Z,3.48
2023-03-05T04:28:41.287Z,3.53
2023-03-05T04:31:07.796Z,3.54
2023-03-05T04:33:34.209Z,3.39
2023-03-05T04:36:00.773Z,3.46
2023-03-05T04:38:27.238Z,3.29
2023-03-05T04:40:53.652Z,3.49
2023-03-05T04:43:20.352Z,3.43
2023-03-05T04:45:46.771Z,3.53
2023-03-05T04:48:13.266Z,3.60
2023-03-05T04:50:39.735Z,3.58
2023-03-05T04:53:06.607Z,3.61
2023-03-05T04:55:33.341Z,3.52
2023-03-05T04:57:59.892Z,3.50
2023-03-05T05:00:26.384Z,3.43
2023-03-05T05:02:53.317Z,3.51
2023-03-05T05:05:22.474Z,3.51
2023-03-05T05:07:49.098Z,3.50
2023-03-05T05:10:16.114Z,3.46
2023-03-05T05:12:43.262Z,3.54
2023-03-05T05:15:11.484Z,3.50
2023-03-05T05:17:37.910Z,3.49
2023-03-05T05:20:08.687Z,3.52
2023-03-05T05:22:35.561Z,3.41
2023-03-05T05:25:02.111Z,3.46
2023-03-05T05:27:29.101Z,3.58
2023-03-05T05:29:56.224Z,3.61
2023-03-05T05:32:24.133Z,3.42
2023-03-05T05:34:59.800Z,3.52
2023-03-05T05:37:26.917Z,3.49
2023-03-05T05:39:53.424Z,3.53
2023-03-05T05:42:21.933Z,3.48
2023-03-05T05:44:48.371Z,3.55
2023-03-05T05:47:16.043Z,3.53
2023-03-05T05:49:42.628Z,3.57
2023-03-05T05:52:10.242Z,3.55
2023-03-05T05:54:36.666Z,3.63
2023-03-05T05:57:03.230Z,3.58
2023-03-05T05:59:30.829Z,3.52
2023-03-05T06:01:57.403Z,3.47
2023-03-05T06:04:23.902Z,3.52
2023-03-05T06:06:50.544Z,3.58
2023-03-05T06:09:17.105Z,3.57
2023-03-05T06:11:43.645Z,3.50
2023-03-05T06:14:11.711Z,3.49
2023-03-05T06:16:38.525Z,3.37
2023-03-05T06:19:05.378Z,3.51
2023-03-05T06:21:32.062Z,3.50
2023-03-05T06:24:01.157Z,3.53
2023-03-05T06:26:27.678Z,3.51
2023-03-05T06:28:54.783Z,3.48
2023-03-05T06:31:25.615Z,3.54
2023-03-05T06:33:54.181Z,3.53
2023-03-05T06:36:22.062Z,3.51
2023-03-05T06:38:49.348Z,3.51
2023-03-05T06:41:19.411Z,3.47
2023-03-05T06:43:47.436Z,3.38
2023-03-05T06:46:28.119Z,3.34
2023-03-05T06:48:59.470Z,3.36
2023-03-05T06:51:28.567Z,3.37
2023-03-05T06:53:55.769Z,3.29
2023-03-05T06:56:22.600Z,3.39
2023-03-05T06:58:50.997Z,3.41
2023-03-05T07:01:18.131Z,3.52
2023-03-05T07:03:44.744Z,3.58
2023-03-05T07:06:14.129Z,3.60
2023-03-05T07:08:40.655Z,3.60
2023-03-05T07:11:15.534Z,3.60
2023-03-05T07:13:43.209Z,3.55
2023-03-05T07:16:12.371Z,3.56
2023-03-05T07:18:38.912Z,3.56
2023-03-05T07:21:07.197Z,3.68
2023-03-05T07:23:34.348Z,3.64
2023-03-05T07:26:02.299Z,3.68
2023-03-05T07:28:28.736Z,3.69
2023-03-05T07:30:59.605Z,3.69
2023-03-05T07:33:26.962Z,3.76
2023-03-05T07:35:54.032Z,3.82
2023-03-05T07:38:20.753Z,3.82
2023-03-05T07:40:47.448Z,3.81
2023-03-05T07:43:13.887Z,3.83
2023-03-05T07:45:41.562Z,3.90
2023-03-05T07:48:09.010Z,3.91
2023-03-05T07:50:35.473Z,3.95
2023-03-05T07:53:02.089Z,3.99
2023-03-05T07:55:28.591Z,4.04
2023-03-05T07:57:55.256Z,4.02
2023-03-05T08:00:22.119Z,4.00
2023-03-05T08:02:50.426Z,3.93
2023-03-05T08:05:17.064Z,4.08
2023-03-05T08:07:43.542Z,4.15
2023-03-05T08:10:10.760Z,4.10
2023-03-05T08:12:37.286Z,4.10
2023-03-05T08:15:03.889Z,4.08
2023-03-05T08:17:30.324Z,4.08
2023-03-05T08:19:59.587Z,4.14
2023-03-05T08:22:26.911Z,4.15
2023-03-05T08:24:53.359Z,4.12
2023-03-05T08:27:19.832Z,4.15
2023-03-05T08:29:46.513Z,4.15
2023-03-05T08:32:13.016Z,4.17
2023-03-05T08:34:39.540Z,4.33
2023-03-05T08:37:07.850Z,4.40
2023-03-05T08:39:34.320Z,4.46
2023-03-05T08:42:00.772Z,4.57
2023-03-05T08:44:27.259Z,4.65
2023-03-05T08:46:54.200Z,4.67
2023-03-05T08:49:20.671Z,4.78
2023-03-05T08:51:47.129Z,4.88
2023-03-05T08:54:13.629Z,4.84
2023-03-05T08:56:40.068Z,4.91
2023-03-05T08:59:06.869Z,4.90
2023-03-05T09:01:33.458Z,4.94
2023-03-05T09:04:00.344Z,5.00
2023-03-05T09:06:27.734Z,4.87
2023-03-05T09:08:54.452Z,4.83
2023-03-05T09:11:21.767Z,4.82
2023-03-05T09:13:48.402Z,4.85
2023-03-05T09:16:16.981Z,5.01
2023-03-05T09:18:43.881Z,4.92
2023-03-05T09:21:16.470Z,5.03
2023-03-05T09:23:43.194Z,5.20
2023-03-05T09:26:15.723Z,5.29
2023-03-05T09:28:42.289Z,5.33
2023-03-05T09:31:09.760Z,5.37
2023-03-05T09:33:37.086Z,5.41
2023-03-05T09:36:04.506Z,5.48
2023-03-05T09:38:31.146Z,5.42
2023-03-05T09:41:16.331Z,5.58
2023-03-05T09:44:00.932Z,5.65
2023-03-05T09:46:53.252Z,5.69
2023-03-05T09:49:41.563Z,5.70
2023-03-05T09:52:15.340Z,5.77
2023-03-05T09:54:48.009Z,5.81
2023-03-05T09:57:20.653Z,5.79
2023-03-05T09:59:52.999Z,5.83
2023-03-05T10:02:24.017Z,5.79
2023-03-05T10:05:08.930Z,5.89
2023-03-05T10:07:38.790Z,5.91
2023-03-05T10:10:10.796Z,5.89
2023-03-05T10:12:45.640Z,5.88
2023-03-05T10:15:14.287Z,5.90
2023-03-05T10:18:14.355Z,5.85
2023-03-05T10:20:40.881Z,5.84
2023-03-05T10:23:19.439Z,5.86
2023-03-05T10:26:07.485Z,5.81
2023-03-05T10:28:54.949Z,5.89
2023-03-05T10:31:35.258Z,5.93
2023-03-05T10:34:12.825Z,5.95
2023-03-05T10:36:48.521Z,5.89
2023-03-05T10:39:45.725Z,5.90
2023-03-05T10:42:36.566Z,5.88
2023-03-05T10:45:30.533Z,5.92
2023-03-05T10:48:06.162Z,5.94
2023-03-05T10:50:37.087Z,5.94
2023-03-05T10:53:34.033Z,5.98
2023-03-05T10:56:05.516Z,5.98
2023-03-05T10:58:32.416Z,5.97
2023-03-05T11:01:24.745Z,6.07
2023-03-05T11:03:59.721Z,6.11
2023-03-05T11:06:45.739Z,6.12
2023-03-05T11:09:14.871Z,6.09
2023-03-05T11:11:41.315Z,6.13
2023-03-05T11:14:30.817Z,6.15
2023-03-05T11:16:57.645Z,6.08
2023-03-05T11:19:33.142Z,6.13
2023-03-05T11:22:08.267Z,6.22
2023-03-05T11:24:36.163Z,6.21
2023-03-05T11:27:20.989Z,6.22
2023-03-05T11:29:49.293Z,6.28
2023-03-05T11:32:21.309Z,6.36
2023-03-05T11:34:48.007Z,6.43
2023-03-05T11:37:30.731Z,6.48
2023-03-05T11:40:22.794Z,6.50
2023-03-05T11:42:56.444Z,6.54
2023-03-05T11:45:24.155Z,6.62
2023-03-05T11:47:54.019Z,6.64
2023-03-05T11:50:24.843Z,6.59
2023-03-05T11:53:00.013Z,6.66
2023-03-05T11:55:53.255Z,6.73
2023-03-05T11:58:25.886Z,6.75
2023-03-05T12:00:52.744Z,6.73
2023-03-05T12:03:34.173Z,6.82
2023-03-05T12:06:07.554Z,6.79
2023-03-05T12:08:37.317Z,6.86
2023-03-05T12:11:18.322Z,6.84
2023-03-05T12:14:15.175Z,6.76
2023-03-05T12:16:52.161Z,6.76
2023-03-05T12:19:41.343Z,6.74
2023-03-05T12:22:22.296Z,6.71
2023-03-05T12:24:49.745Z,6.66
2023-03-05T12:27:32.152Z,6.65
2023-03-05T12:30:01.483Z,6.60
2023-03-05T12:32:31.682Z,6.59
2023-03-05T12:35:00.062Z,6.50
2023-03-05T12:37:27.157Z,6.47
2023-03-05T12:40:18.211Z,6.46
2023-03-05T12:42:51.759Z,6.48
2023-03-05T12:45:19.553Z,6.42
2023-03-05T12:47:47.250Z,6.39
2023-03-05T12:50:31.826Z,6.36
2023-03-05T12:53:04.379Z,6.42
2023-03-05T12:55:34.963Z,6.47
2023-03-05T12:58:15.267Z,6.40
2023-03-05T13:01:17.034Z,6.40
2023-03-05T13:03:56.703Z,6.40
2023-03-05T13:06:26.299Z,6.47
2023-03-05T13:09:15.197Z,6.43
2023-03-05T13:11:43.182Z,6.49
2023-03-05T13:14:39.676Z,6.42
2023-03-05T13:17:38.436Z,6.44
2023-03-05T13:20:40.970Z,6.37
2023-03-05T13:23:24.767Z,6.39
2023-03-05T13:26:01.974Z,6.40
2023-03-05T13:28:29.350Z,6.40
2023-03-05T13:31:04.587Z,6.40
2023-03-05T13:33:37.358Z,6.34
2023-03-05T13:36:04.804Z,6.39
2023-03-05T13:38:39.118Z,6.32
2023-03-05T13:41:05.747Z,6.36
2023-03-05T13:43:32.302Z,6.44
2023-03-05T13:45:59.480Z,6.50
2023-03-05T13:48:27.111Z,6.50
2023-03-05T13:50:56.460Z,6.57
2023-03-05T13:53:28.452Z,6.66
2023-03-05T13:56:06.545Z,6.68
2023-03-05T13:58:54.930Z,6.71
2023-03-05T14:01:27.178Z,6.78
2023-03-05T14:03:57.394Z,6.87
2023-03-05T14:06:25.615Z,6.83
2023-03-05T14:08:53.979Z,6.95
2023-03-05T14:11:20.540Z,6.98
2023-03-05T14:13:48.033Z,6.98
2023-03-05T14:16:24.592Z,7.04
2023-03-05T14:18:58.978Z,7.08
2023-03-05T14:21:25.566Z,7.06
2023-03-05T14:23:54.808Z,7.13
2023-03-05T14:26:31.104Z,7.13
2023-03-05T14:29:02.979Z,7.18
2023-03-05T14:31:32.777Z,7.23
2023-03-05T14:34:05.231Z,7.12
2023-03-05T14:36:33.598Z,7.15
2023-03-05T14:39:01.027Z,7.14
2023-03-05T14:41:33.199Z,7.08
2023-03-05T14:43:59.747Z,6.97
2023-03-05T14:46:26.371Z,6.93
2023-03-05T14:48:52.930Z,6.92
2023-03-05T14:51:19.398Z,6.91
2023-03-05T14:53:47.907Z,6.91
2023-03-05T14:56:19.122Z,6.88
2023-03-05T14:58:45.623Z,6.90
2023-03-05T15:01:12.659Z,6.94
2023-03-05T15:03:41.441Z,6.90
2023-03-05T15:06:17.924Z,6.92
2023-03-05T15:08:44.381Z,6.81
2023-03-05T15:11:11.556Z,6.86
2023-03-05T15:13:38.073Z,6.88
2023-03-05T15:16:05.311Z,6.82
2023-03-05T15:18:31.766Z,6.79
2023-03-05T15:20:58.254Z,6.75
2023-03-05T15:23:24.818Z,6.74
2023-03-05T15:25:51.233Z,6.73
2023-03-05T15:28:17.766Z,6.64
2023-03-05T15:30:47.234Z,6.69
2023-03-05T15:33:15.856Z,6.63
2023-03-05T15:35:42.546Z,6.64
2023-03-05T15:38:09.140Z,6.67
2023-03-05T15:40:35.686Z,6.59
2023-03-05T15:43:02.211Z,6.56
2023-03-05T15:45:31.399Z,6.66
2023-03-05T15:47:58.159Z,6.65
2023-03-05T15:50:24.669Z,6.63
2023-03-05T15:52:51.369Z,6.53
2023-03-05T15:55:20.785Z,6.54
2023-03-05T15:57:49.137Z,6.50
2023-03-05T16:00:18.608Z,6.54
2023-03-05T16:02:45.079Z,6.55
2023-03-05T16:05:11.731Z,6.46
2023-03-05T16:07:40.783Z,6.50
2023-03-05T16:10:07.944Z,6.54
2023-03-05T16:12:40.632Z,6.52
2023-03-05T16:15:09.812Z,6.49
2023-03-05T16:17:36.842Z,6.45
2023-03-05T16:20:04.987Z,6.45
2023-03-05T16:22:32.620Z,6.45
2023-03-05T16:25:01.221Z,6.41
2023-03-05T16:27:28.399Z,6.40
2023-03-05T16:29:54.911Z,6.40
2023-03-05T16:32:21.514Z,6.41
2023-03-05T16:34:48.097Z,6.45
2023-03-05T16:37:22.112Z,6.46
2023-03-05T16:39:49.270Z,6.44
2023-03-05T16:42:15.931Z,6.41
2023-03-05T16:44:43.415Z,6.41
2023-03-05T16:47:12.204Z,6.28
2023-03-05T16:49:39.369Z,6.31
2023-03-05T16:52:18.385Z,6.36
2023-03-05T16:54:46.697Z,6.30
2023-03-05T16:57:13.283Z,6.32
2023-03-05T16:59:39.751Z,6.28
2023-03-05T17:02:06.391Z,6.31
2023-03-05T17:04:33.448Z,6.34
2023-03-05T17:06:59.894Z,6.33
2023-03-05T17:09:26.395Z,6.32
2023-03-05T17:11:53.309Z,6.31
2023-03-05T17:14:20.343Z,6.31
2023-03-05T17:16:46.960Z,6.27
2023-03-05T17:19:13.659Z,6.15
2023-03-05T17:21:42.334Z,6.05
2023-03-05T17:24:09.473Z,5.99
2023-03-05T17:26:36.480Z,5.95
2023-03-05T17:29:04.452Z,5.86
2023-03-05T17:31:31.013Z,5.79
2023-03-05T17:33:57.833Z,5.82
2023-03-05T17:36:24.820Z,5.84
2023-03-05T17:38:51.647Z,5.83
2023-03-05T17:41:18.642Z,5.82
2023-03-05T17:43:45.224Z,5.79
2023-03-05T17:46:11.927Z,5.71
2023-03-05T17:48:39.275Z,5.72
2023-03-05T17:51:07.602Z,5.73
2023-03-05T17:53:35.177Z,5.62
2023-03-05T17:56:02.057Z,5.60
2023-03-05T17:58:28.484Z,5.62
2023-03-05T18:00:55.161Z,5.67
2023-03-05T18:03:21.692Z,5.63
2023-03-05T18:05:48.223Z,5.62
2023-03-05T18:08:14.704Z,5.61
2023-03-05T18:10:41.162Z,5.66
2023-03-05T18:13:07.623Z,5.63
2023-03-05T18:15:34.124Z,5.68
2023-03-05T18:18:00.674Z,5.72
2023-03-05T18:20:29.535Z,5.70
2023-03-05T18:22:57.642Z,5.68
2023-03-05T18:25:30.609Z,5.64
2023-03-05T18:28:01.255Z,5.52
2023-03-05T18:30:28.379Z,5.56
2023-03-05T18:32:55.296Z,5.50
2023-03-05T18:35:22.249Z,5.47
2023-03-05T18:37:48.706Z,5.44
2023-03-05T18:40:19.539Z,5.41
2023-03-05T18:42:46.113Z,5.47
2023-03-05T18:45:16.791Z,5.28
2023-03-05T18:47:43.248Z,5.35
2023-03-05T18:50:11.691Z,5.21
2023-03-05T18:52:38.117Z,5.33
2023-03-05T18:55:05.002Z,5.38
2023-03-05T18:57:31.550Z,5.44
2023-03-05T18:59:58.000Z,5.26
2023-03-05T19:02:27.238Z,5.31
2023-03-05T19:04:53.661Z,5.17
2023-03-05T19:07:20.157Z,5.16
2023-03-05T19:09:59.660Z,4.98
2023-03-05T19:12:30.931Z,5.06
2023-03-05T19:14:59.382Z,5.06
2023-03-05T19:17:25.905Z,5.06
2023-03-05T19:19:52.968Z,5.18
2023-03-05T19:22:20.438Z,5.03
2023-03-05T19:24:47.055Z,5.17
2023-03-05T19:27:13.948Z,5.23
2023-03-05T19:29:41.948Z,5.01
2023-03-05T19:32:12.388Z,5.05
2023-03-05T19:34:39.000Z,5.04
2023-03-05T19:37:05.733Z,5.03
2023-03-05T19:39:33.117Z,5.00
2023-03-05T19:41:59.640Z,5.02
2023-03-05T19:44:26.543Z,4.99
2023-03-05T19:46:53.181Z,4.89
2023-03-05T19:49:19.882Z,4.98
2023-03-05T19:51:47.164Z,5.01
2023-03-05T19:54:15.323Z,4.99
2023-03-05T19:56:43.051Z,5.01
2023-03-05T19:59:09.961Z,5.00
2023-03-05T20:01:37.105Z,4.98
2023-03-05T20:04:05.376Z,5.01
2023-03-05T20:06:32.739Z,4.98
2023-03-05T20:08:59.727Z,5.02
2023-03-05T20:11:26.966Z,5.06
2023-03-05T20:13:55.072Z,5.06
2023-03-05T20:16:32.960Z,5.09
2023-03-05T20:18:59.760Z,5.08
2023-03-05T20:21:36.088Z,4.96
2023-03-05T20:24:05.405Z,5.05
2023-03-05T20:26:34.430Z,5.03
2023-03-05T20:29:01.730Z,5.05
2023-03-05T20:31:28.320Z,4.96
2023-03-05T20:33:56.197Z,5.00
2023-03-05T20:36:23.838Z,4.92
2023-03-05T20:38:50.480Z,4.97
2023-03-05T20:41:20.586Z,5.00
2023-03-05T20:43:49.035Z,5.00
2023-03-05T20:46:18.171Z,4.92
2023-03-05T20:48:47.967Z,4.90
2023-03-05T20:51:22.725Z,4.99
2023-03-05T20:53:50.483Z,4.87
2023-03-05T20:56:17.290Z,4.99
2023-03-05T20:58:44.013Z,4.92
2023-03-05T21:01:10.753Z,4.96
2023-03-05T21:03:38.745Z,4.86
2023-03-05T21:06:06.085Z,4.84
2023-03-05T21:08:32.619Z,4.83
2023-03-05T21:10:59.624Z,4.79
2023-03-05T21:13:26.431Z,4.76
2023-03-05T21:15:52.896Z,4.68
2023-03-05T21:18:19.393Z,4.80
2023-03-05T21:20:45.957Z,4.71
2023-03-05T21:23:12.466Z,4.72
2023-03-05T21:25:39.008Z,4.66
2023-03-05T21:28:09.260Z,4.73
2023-03-05T21:30:38.799Z,4.68
2023-03-05T21:33:07.737Z,4.70
2023-03-05T21:35:35.755Z,4.64
2023-03-05T21:38:04.912Z,4.73
2023-03-05T21:40:32.831Z,4.75
2023-03-05T21:42:59.348Z,4.67
2023-03-05T21:45:27.508Z,4.54
2023-03-05T21:47:54.238Z,4.69
2023-03-05T21:50:21.837Z,4.72
2023-03-05T21:52:48.459Z,4.66
2023-03-05T21:55:17.690Z,4.72
2023-03-05T21:57:44.917Z,4.60
2023-03-05T22:00:12.974Z,4.64
2023-03-05T22:02:42.767Z,4.63
2023-03-05T22:05:12.790Z,4.55
2023-03-05T22:07:40.091Z,4.62
2023-03-05T22:10:07.151Z,4.56
2023-03-05T22:12:53.102Z,4.52
2023-03-05T22:15:20.528Z,4.59
2023-03-05T22:17:47.038Z,4.61
2023-03-05T22:20:14.264Z,4.56
2023-03-05T22:22:41.658Z,4.50
2023-03-05T22:25:08.797Z,4.38
2023-03-05T22:27:35.311Z,4.42
2023-03-05T22:30:01.794Z,4.48
2023-03-05T22:32:28.276Z,4.52
2023-03-05T22:34:56.201Z,4.44
2023-03-05T22:37:22.667Z,4.35
2023-03-05T22:39:53.765Z,4.37
2023-03-05T22:42:20.320Z,4.41
2023-03-05T22:44:50.235Z,4.50
2023-03-05T22:47:16.696Z,4.42
2023-03-05T22:49:45.208Z,4.41
2023-03-05T22:52:13.190Z,4.26
2023-03-05T22:54:39.627Z,4.37
2023-03-05T22:57:06.107Z,4.10
2023-03-05T22:59:32.597Z,4.22
2023-03-05T23:01:59.062Z,4.33
2023-03-05T23:04:48.084Z,4.38
2023-03-05T23:07:25.896Z,4.35
2023-03-05T23:09:55.302Z,4.22
2023-03-05T23:12:22.092Z,4.18
2023-03-05T23:14:48.623Z,4.31
2023-03-05T23:17:15.394Z,4.22
2023-03-05T23:19:41.838Z,4.25
2023-03-05T23:22:10.498Z,4.23
2023-03-05T23:24:37.047Z,4.23
2023-03-05T23:27:07.702Z,4.09
2023-03-05T23:29:51.707Z,4.04
2023-03-05T23:32:18.217Z,4.18
2023-03-05T23:34:44.663Z,4.13
2023-03-05T23:37:12.631Z,4.19
2023-03-05T23:39:39.136Z,4.24
2023-03-05T23:42:05.805Z,4.21
2023-03-05T23:44:32.298Z,4.18
2023-03-05T23:46:58.804Z,4.17
2023-03-05T23:49:25.289Z,4.17
2023-03-05T23:51:51.817Z,4.20
2023-03-05T23:54:18.237Z,4.11
2023-03-05T23:56:47.291Z,4.10
2023-03-05T23:59:13.819Z,4.15
